^^
Datos históricos de la estación: Murcia-Puente Tocinos
Diario Informe para Noviembre 3, 2019 Unidades:  Ambas    Ingés   Métrico
Diario Semanal Mensual Anual
  Máxima: Mínima: Promedio:
Temperatura: 79.2 °F /  26.2 °C 66.9 °F /  19.4 °C 72.9 °F /  22.7 °C
Punto de rocio: 53.2 °F /  11.8 °C 43.7 °F /  6.5 °C 49.5 °F /  9.7 °C
Humedad: 57% 36.8% 44%
Velocidad viento: 17.5mph /  28.2km/h - 7.8mph /  12.6km/h
Racha viento: 31.1mph /  50.1km/h - -
Viento- - OSO
Presión: 29.9 in /  1010.9 hPa 29.6 in /  1002.3 hPa -
Precipitación: 0 in /  0.0 mm    
 
 
Tabla de datos para Noviembre 3, 2019
Hora Temperatura Punto de rocio Presión Viento Velocidad viento Racha viento Humedad Intensidad lluvia(por hora) Nubes
00:04 70.5 °F /  21.4 °C 52.5 °F /  11.4 °C 29.7in /  1005.0hPa SO 6.9mph /  11.1km/h 15mph /  24.1km/h 53% 0in /  0.0mm
00:09 70.5 °F /  21.4 °C 52.3 °F /  11.3 °C 29.7in /  1005.0hPa SSO 6.9mph /  11.1km/h 15mph /  24.1km/h 52.5% 0in /  0.0mm
00:14 70.7 °F /  21.5 °C 52.3 °F /  11.3 °C 29.7in /  1004.8hPa SSO 7.5mph /  12km/h 14mph /  22.5km/h 52.3% 0in /  0.0mm
00:19 70.5 °F /  21.4 °C 52.5 °F /  11.4 °C 29.7in /  1004.8hPa SO 7.6mph /  12.2km/h 12.7mph /  20.4km/h 53% 0in /  0.0mm
00:24 70.2 °F /  21.2 °C 52.3 °F /  11.3 °C 29.7in /  1004.9hPa SSO 7.5mph /  12km/h 13mph /  20.9km/h 53.1% 0in /  0.0mm
00:29 70.2 °F /  21.2 °C 52.2 °F /  11.2 °C 29.7in /  1004.9hPa SSO 7.4mph /  11.9km/h 16.1mph /  25.9km/h 53.1% 0in /  0.0mm
00:34 70.2 °F /  21.2 °C 52.2 °F /  11.2 °C 29.7in /  1004.9hPa SSO 8mph /  12.8km/h 16mph /  25.7km/h 53% 0in /  0.0mm
00:39 70.2 °F /  21.2 °C 52.2 °F /  11.2 °C 29.7in /  1004.9hPa SSO 8.1mph /  13km/h 13mph /  20.9km/h 53% 0in /  0.0mm
00:44 70.2 °F /  21.2 °C 52.2 °F /  11.2 °C 29.7in /  1004.8hPa SSO 7.6mph /  12.2km/h 13mph /  20.9km/h 53% 0in /  0.0mm
00:49 70.3 °F /  21.3 °C 52.2 °F /  11.2 °C 29.7in /  1004.8hPa SO 7.4mph /  11.9km/h 12mph /  19.3km/h 52.4% 0in /  0.0mm
00:54 70.5 °F /  21.4 °C 52 °F /  11.1 °C 29.7in /  1004.8hPa SO 6.5mph /  10.4km/h 12.7mph /  20.4km/h 52% 0in /  0.0mm
00:59 70.9 °F /  21.6 °C 51.8 °F /  11 °C 29.7in /  1004.4hPa SO 6.2mph /  10km/h 13mph /  20.9km/h 51% 0in /  0.0mm
01:04 70.9 °F /  21.6 °C 51.8 °F /  11 °C 29.7in /  1004.4hPa SO 6.8mph /  10.9km/h 13mph /  20.9km/h 51% 0in /  0.0mm
01:09 70.9 °F /  21.6 °C 51.8 °F /  11 °C 29.7in /  1004.4hPa SO 6.9mph /  11.1km/h 13mph /  20.9km/h 51% 0in /  0.0mm
01:14 70.9 °F /  21.6 °C 51.8 °F /  11 °C 29.7in /  1004.1hPa SO 6.5mph /  10.5km/h 12.3mph /  19.8km/h 51% 0in /  0.0mm
01:19 70.9 °F /  21.6 °C 51.8 °F /  11 °C 29.7in /  1004.1hPa OSO 6.4mph /  10.3km/h 14mph /  22.5km/h 51% 0in /  0.0mm
01:24 70.7 °F /  21.5 °C 52 °F /  11.1 °C 29.7in /  1004.1hPa SO 6.4mph /  10.3km/h 14mph /  22.5km/h 51.8% 0in /  0.0mm
01:29 70.5 °F /  21.4 °C 52 °F /  11.1 °C 29.7in /  1004.1hPa SO 6.4mph /  10.3km/h 14mph /  22.5km/h 52% 0in /  0.0mm
01:34 70.5 °F /  21.4 °C 52 °F /  11.1 °C 29.7in /  1004.1hPa SO 6.4mph /  10.3km/h 11mph /  17.7km/h 52% 0in /  0.0mm
01:39 70.5 °F /  21.4 °C 52 °F /  11.1 °C 29.7in /  1004.1hPa SO 6.4mph /  10.3km/h 11.5mph /  18.5km/h 52% 0in /  0.0mm
01:44 70.5 °F /  21.4 °C 52 °F /  11.1 °C 29.6in /  1003.9hPa SO 6.4mph /  10.3km/h 12mph /  19.3km/h 52% 0in /  0.0mm
01:49 70.5 °F /  21.4 °C 52 °F /  11.1 °C 29.6in /  1003.9hPa SO 6.4mph /  10.3km/h 10.7mph /  17.2km/h 52% 0in /  0.0mm
01:54 70.5 °F /  21.4 °C 52 °F /  11.1 °C 29.6in /  1003.9hPa SO 6.4mph /  10.3km/h 11.5mph /  18.5km/h 52% 0in /  0.0mm
01:59 70.7 °F /  21.5 °C 52.2 °F /  11.2 °C 29.6in /  1003.8hPa SO 6.4mph /  10.3km/h 12mph /  19.3km/h 52% 0in /  0.0mm
02:04 70.7 °F /  21.5 °C 52.2 °F /  11.2 °C 29.6in /  1003.8hPa OSO 6mph /  9.7km/h 10mph /  16.1km/h 52% 0in /  0.0mm
02:09 70.5 °F /  21.4 °C 52.2 °F /  11.2 °C 29.6in /  1003.8hPa OSO 5.9mph /  9.5km/h 9mph /  14.5km/h 52% 0in /  0.0mm
02:14 70.3 °F /  21.3 °C 52.2 °F /  11.2 °C 29.6in /  1003.4hPa Oeste 5mph /  8km/h 9.2mph /  14.8km/h 52.5% 0in /  0.0mm
02:19 70.2 °F /  21.2 °C 52.2 °F /  11.2 °C 29.6in /  1003.4hPa OSO 4.7mph /  7.6km/h 9.2mph /  14.8km/h 53% 0in /  0.0mm
02:24 70.2 °F /  21.2 °C 52.2 °F /  11.2 °C 29.6in /  1003.4hPa OSO 4.7mph /  7.6km/h 9.2mph /  14.8km/h 53% 0in /  0.0mm
02:29 70.3 °F /  21.3 °C 52.3 °F /  11.3 °C 29.6in /  1003.2hPa OSO 4.7mph /  7.6km/h 9.7mph /  15.6km/h 53% 0in /  0.0mm
02:34 70.5 °F /  21.4 °C 52.5 °F /  11.4 °C 29.6in /  1003.2hPa OSO 4.7mph /  7.6km/h 10mph /  16.1km/h 53% 0in /  0.0mm
02:39 70.5 °F /  21.4 °C 52.5 °F /  11.4 °C 29.6in /  1003.2hPa SO 4.7mph /  7.6km/h 7.4mph /  11.9km/h 53% 0in /  0.0mm
02:44 70.5 °F /  21.4 °C 52.5 °F /  11.4 °C 29.6in /  1003.0hPa Oeste 4.2mph /  6.7km/h 8.5mph /  13.7km/h 52.8% 0in /  0.0mm
02:49 70.5 °F /  21.4 °C 52.5 °F /  11.4 °C 29.6in /  1003.0hPa Oeste 4mph /  6.5km/h 9mph /  14.5km/h 53% 0in /  0.0mm
02:54 70.2 °F /  21.2 °C 52.7 °F /  11.5 °C 29.6in /  1003.0hPa Oeste 4.2mph /  6.8km/h 8mph /  12.9km/h 54% 0in /  0.0mm
02:59 69.8 °F /  21 °C 52.5 °F /  11.4 °C 29.6in /  1003.0hPa Oeste 4.3mph /  6.9km/h 7.4mph /  11.9km/h 54.3% 0in /  0.0mm
03:04 69.6 °F /  20.9 °C 52.7 °F /  11.5 °C 29.6in /  1003.0hPa Oeste 4mph /  6.5km/h 7mph /  11.3km/h 55% 0in /  0.0mm
03:09 69.4 °F /  20.8 °C 52.7 °F /  11.5 °C 29.6in /  1003.2hPa ONO 4mph /  6.5km/h 7mph /  11.3km/h 55% 0in /  0.0mm
03:14 69.4 °F /  20.8 °C 52.7 °F /  11.5 °C 29.6in /  1003.2hPa Oeste 4mph /  6.5km/h 8.1mph /  13km/h 55.2% 0in /  0.0mm
03:19 69.3 °F /  20.7 °C 52.9 °F /  11.6 °C 29.6in /  1003.2hPa ONO 4mph /  6.5km/h 8mph /  12.9km/h 56% 0in /  0.0mm
03:24 69.3 °F /  20.7 °C 52.9 °F /  11.6 °C 29.6in /  1003.2hPa Oeste 4.2mph /  6.8km/h 7mph /  11.3km/h 56% 0in /  0.0mm
03:29 69.3 °F /  20.7 °C 52.9 °F /  11.6 °C 29.6in /  1003.2hPa Oeste 4.3mph /  6.9km/h 6mph /  9.7km/h 56% 0in /  0.0mm
03:34 69.3 °F /  20.7 °C 52.9 °F /  11.6 °C 29.6in /  1003.2hPa Oeste 3.7mph /  6km/h 6mph /  9.7km/h 56% 0in /  0.0mm
03:39 69.3 °F /  20.7 °C 52.9 °F /  11.6 °C 29.6in /  1003.2hPa OSO 3.6mph /  5.8km/h 5.8mph /  9.3km/h 56% 0in /  0.0mm
03:44 69.1 °F /  20.6 °C 52.7 °F /  11.5 °C 29.6in /  1003.1hPa OSO 3mph /  4.9km/h 6mph /  9.7km/h 56% 0in /  0.0mm
03:49 69.1 °F /  20.6 °C 52.7 °F /  11.5 °C 29.6in /  1003.1hPa OSO 2.9mph /  4.7km/h 5mph /  8km/h 56% 0in /  0.0mm
03:54 69.1 °F /  20.6 °C 52.7 °F /  11.5 °C 29.6in /  1003.1hPa SO 2.5mph /  4km/h 5mph /  8km/h 56% 0in /  0.0mm
03:59 69.3 °F /  20.7 °C 52.9 °F /  11.6 °C 29.6in /  1003.0hPa SSO 2.4mph /  3.9km/h 5.8mph /  9.3km/h 56% 0in /  0.0mm
04:04 69.3 °F /  20.7 °C 52.9 °F /  11.6 °C 29.6in /  1003.0hPa Sur 3mph /  4.8km/h 6.9mph /  11.1km/h 56% 0in /  0.0mm
04:09 69.3 °F /  20.7 °C 53.1 °F /  11.7 °C 29.6in /  1003.0hPa Sur 3.1mph /  5km/h 7mph /  11.3km/h 56.5% 0in /  0.0mm
04:14 69.1 °F /  20.6 °C 53.2 °F /  11.8 °C 29.6in /  1002.9hPa Sur 4.3mph /  7km/h 8.1mph /  13km/h 57% 0in /  0.0mm
04:19 69.1 °F /  20.6 °C 52.9 °F /  11.6 °C 29.6in /  1002.9hPa SSO 4.7mph /  7.6km/h 8mph /  12.9km/h 56.4% 0in /  0.0mm
04:24 69.3 °F /  20.7 °C 52.9 °F /  11.6 °C 29.6in /  1002.9hPa Sur 4.4mph /  7.1km/h 7.6mph /  12.2km/h 55.9% 0in /  0.0mm
04:29 69.4 °F /  20.8 °C 52.7 °F /  11.5 °C 29.6in /  1002.6hPa SSO 4.3mph /  6.9km/h 8.1mph /  13km/h 55% 0in /  0.0mm
04:34 69.8 °F /  21 °C 52.7 °F /  11.5 °C 29.6in /  1002.6hPa Sur 4.6mph /  7.4km/h 8mph /  12.9km/h 54.5% 0in /  0.0mm
04:39 70.2 °F /  21.2 °C 52.7 °F /  11.5 °C 29.6in /  1002.7hPa Sur 4.7mph /  7.6km/h 8.1mph /  13km/h 54% 0in /  0.0mm
04:44 70.3 °F /  21.3 °C 52.5 °F /  11.4 °C 29.6in /  1002.7hPa SSO 4.7mph /  7.6km/h 8.1mph /  13km/h 53.3% 0in /  0.0mm
04:49 70.3 °F /  21.3 °C 52.3 °F /  11.3 °C 29.6in /  1002.7hPa SSO 4.7mph /  7.6km/h 8.1mph /  13km/h 53% 0in /  0.0mm
04:54 70.5 °F /  21.4 °C 52.2 °F /  11.2 °C 29.6in /  1002.8hPa SO 5.3mph /  8.5km/h 12.3mph /  19.8km/h 52.3% 0in /  0.0mm
04:59 70.9 °F /  21.6 °C 50.5 °F /  10.3 °C 29.6in /  1002.8hPa SO 5.4mph /  8.7km/h 21.9mph /  35.2km/h 48.5% 0in /  0.0mm
05:04 71.8 °F /  22.1 °C 48.6 °F /  9.2 °C 29.6in /  1002.8hPa SO 8.5mph /  13.7km/h 22mph /  35.4km/h 43.8% 0in /  0.0mm
05:09 72.1 °F /  22.3 °C 48 °F /  8.9 °C 29.6in /  1002.8hPa SO 9.2mph /  14.8km/h 22mph /  35.4km/h 42.2% 0in /  0.0mm
05:14 72.3 °F /  22.4 °C 47.8 °F /  8.8 °C 29.6in /  1002.6hPa SO 9.6mph /  15.4km/h 17.3mph /  27.8km/h 41.9% 0in /  0.0mm
05:19 72.3 °F /  22.4 °C 47.3 °F /  8.5 °C 29.6in /  1002.6hPa SO 9.7mph /  15.6km/h 17.3mph /  27.8km/h 41% 0in /  0.0mm
05:24 72.3 °F /  22.4 °C 47.3 °F /  8.5 °C 29.6in /  1002.6hPa SO 10.4mph /  16.8km/h 20.7mph /  33.3km/h 41% 0in /  0.0mm
05:29 72.1 °F /  22.3 °C 46.9 °F /  8.3 °C 29.6in /  1002.6hPa SO 10.7mph /  17.2km/h 21mph /  33.8km/h 40.6% 0in /  0.0mm
05:34 72.1 °F /  22.3 °C 47.1 °F /  8.4 °C 29.6in /  1002.6hPa OSO 11.1mph /  17.8km/h 18mph /  29km/h 41% 0in /  0.0mm
05:39 72 °F /  22.2 °C 46.9 °F /  8.3 °C 29.6in /  1002.6hPa SO 11.2mph /  18km/h 20.8mph /  33.5km/h 41% 0in /  0.0mm
05:44 72 °F /  22.2 °C 46.9 °F /  8.3 °C 29.6in /  1002.4hPa SO 11.2mph /  18km/h 21mph /  33.8km/h 41% 0in /  0.0mm
05:49 71.8 °F /  22.1 °C 47.3 °F /  8.5 °C 29.6in /  1002.4hPa SO 11.2mph /  18km/h 21mph /  33.8km/h 41.7% 0in /  0.0mm
05:54 71.8 °F /  22.1 °C 47.3 °F /  8.5 °C 29.6in /  1002.4hPa SO 9.6mph /  15.5km/h 19.7mph /  31.7km/h 41.8% 0in /  0.0mm
05:59 72 °F /  22.2 °C 47.5 °F /  8.6 °C 29.6in /  1002.3hPa SSO 9.2mph /  14.8km/h 20mph /  32.2km/h 42% 0in /  0.0mm
06:04 71.8 °F /  22.1 °C 47.3 °F /  8.5 °C 29.6in /  1002.3hPa SSO 10mph /  16.1km/h 20.7mph /  33.3km/h 41.6% 0in /  0.0mm
06:09 71.6 °F /  22 °C 47.3 °F /  8.5 °C 29.6in /  1002.6hPa SSO 10.2mph /  16.4km/h 21mph /  33.8km/h 42% 0in /  0.0mm
06:14 71.4 °F /  21.9 °C 47.1 °F /  8.4 °C 29.6in /  1002.6hPa SO 8.8mph /  14.2km/h 16.1mph /  25.9km/h 42% 0in /  0.0mm
06:19 71.1 °F /  21.7 °C 46.9 °F /  8.3 °C 29.6in /  1002.6hPa SO 8.5mph /  13.7km/h 15mph /  24.1km/h 42% 0in /  0.0mm
06:24 70.9 °F /  21.6 °C 47.1 °F /  8.4 °C 29.6in /  1002.6hPa SO 8.5mph /  13.7km/h 14mph /  22.5km/h 43% 0in /  0.0mm
06:29 70.5 °F /  21.4 °C 46.4 °F /  8 °C 29.6in /  1002.6hPa SO 8.5mph /  13.7km/h 14mph /  22.5km/h 42.3% 0in /  0.0mm
06:34 70.3 °F /  21.3 °C 46 °F /  7.8 °C 29.6in /  1002.6hPa SSO 7.6mph /  12.3km/h 15.2mph /  24.5km/h 41.8% 0in /  0.0mm
06:39 70.3 °F /  21.3 °C 45.3 °F /  7.4 °C 29.6in /  1002.6hPa SSO 7.4mph /  11.9km/h 18.4mph /  29.6km/h 40.7% 0in /  0.0mm
06:44 70.3 °F /  21.3 °C 45 °F /  7.2 °C 29.6in /  1002.6hPa SSO 8.4mph /  13.6km/h 18.4mph /  29.6km/h 40% 0in /  0.0mm
06:49 70.3 °F /  21.3 °C 44.4 °F /  6.9 °C 29.6in /  1002.6hPa SSO 8.7mph /  14km/h 21.9mph /  35.2km/h 39.3% 0in /  0.0mm
06:54 70.3 °F /  21.3 °C 44.2 °F /  6.8 °C 29.6in /  1002.6hPa SSO 10.8mph /  17.4km/h 22mph /  35.4km/h 39% 0in /  0.0mm
06:59 70.2 °F /  21.2 °C 44.1 °F /  6.7 °C 29.6in /  1002.6hPa SSO 11.4mph /  18.4km/h 21mph /  33.8km/h 39% 0in /  0.0mm
07:04 70.2 °F /  21.2 °C 43.9 °F /  6.6 °C 29.6in /  1002.6hPa SSO 12.1mph /  19.5km/h 20mph /  32.2km/h 39% 0in /  0.0mm
07:09 69.8 °F /  21 °C 43.7 °F /  6.5 °C 29.6in /  1002.6hPa SSO 12.3mph /  19.8km/h 18mph /  29km/h 39% 0in /  0.0mm
07:14 69.6 °F /  20.9 °C 43.7 °F /  6.5 °C 29.6in /  1002.4hPa SSO 10.5mph /  16.9km/h 18.4mph /  29.6km/h 39.3% 0in /  0.0mm
07:19 69.6 °F /  20.9 °C 44.1 °F /  6.7 °C 29.6in /  1002.4hPa SSO 10mph /  16.1km/h 18mph /  29km/h 39.9% 0in /  0.0mm
07:24 69.6 °F /  20.9 °C 44.2 °F /  6.8 °C 29.6in /  1002.6hPa SSO 10mph /  16.1km/h 21.9mph /  35.2km/h 39.9% 0in /  0.0mm
07:29 70 °F /  21.1 °C 44.4 °F /  6.9 °C 29.6in /  1002.6hPa SSO 10mph /  16.1km/h 22mph /  35.4km/h 40% 0in /  0.0mm
07:34 70.2 °F /  21.2 °C 44.6 °F /  7 °C 29.6in /  1002.6hPa SSO 11.1mph /  17.9km/h 21.3mph /  34.3km/h 40% 0in /  0.0mm
07:39 70.2 °F /  21.2 °C 45.1 °F /  7.3 °C 29.6in /  1002.8hPa SSO 11.4mph /  18.4km/h 21mph /  33.8km/h 40.6% 0in /  0.0mm
07:44 70.3 °F /  21.3 °C 45.5 °F /  7.5 °C 29.6in /  1002.8hPa SSO 11.7mph /  18.9km/h 21mph /  33.8km/h 41% 0in /  0.0mm
07:49 70.3 °F /  21.3 °C 45.5 °F /  7.5 °C 29.6in /  1002.8hPa SSO 11.8mph /  19km/h 21.9mph /  35.2km/h 41% 0in /  0.0mm
07:54 70.3 °F /  21.3 °C 45.5 °F /  7.5 °C 29.6in /  1002.8hPa SSO 11.5mph /  18.5km/h 22mph /  35.4km/h 41% 0in /  0.0mm
07:59 70.3 °F /  21.3 °C 45.5 °F /  7.5 °C 29.6in /  1002.8hPa SSO 11.4mph /  18.4km/h 17.5mph /  28.2km/h 41% 0in /  0.0mm
08:04 70.3 °F /  21.3 °C 45.9 °F /  7.7 °C 29.6in /  1002.8hPa SSO 10.4mph /  16.8km/h 17mph /  27.4km/h 41.5% 0in /  0.0mm
08:09 70.3 °F /  21.3 °C 46.2 °F /  7.9 °C 29.6in /  1002.8hPa SSO 10.2mph /  16.4km/h 18.5mph /  29.8km/h 42% 0in /  0.0mm
08:14 70.3 °F /  21.3 °C 46.2 °F /  7.9 °C 29.6in /  1002.8hPa SSO 10.1mph /  16.2km/h 19mph /  30.6km/h 42% 0in /  0.0mm
08:19 70.3 °F /  21.3 °C 46.4 °F /  8 °C 29.6in /  1002.8hPa SSO 10mph /  16.1km/h 16.8mph /  27km/h 42.2% 0in /  0.0mm
08:24 70.3 °F /  21.3 °C 46.8 °F /  8.2 °C 29.6in /  1002.9hPa SSO 9mph /  14.5km/h 17.3mph /  27.8km/h 43% 0in /  0.0mm
08:29 70.3 °F /  21.3 °C 46.8 °F /  8.2 °C 29.6in /  1002.9hPa SSO 8.7mph /  14km/h 13mph /  20.9km/h 43% 0in /  0.0mm
08:34 70.3 °F /  21.3 °C 47.3 °F /  8.5 °C 29.6in /  1002.9hPa SSO 7.8mph /  12.6km/h 15mph /  24.1km/h 43.8% 0in /  0.0mm
08:39 70.5 °F /  21.4 °C 47.5 °F /  8.6 °C 29.6in /  1002.9hPa SSO 7.6mph /  12.2km/h 15mph /  24.1km/h 44% 0in /  0.0mm
08:44 70.5 °F /  21.4 °C 47.5 °F /  8.6 °C 29.6in /  1002.9hPa SSO 8.4mph /  13.6km/h 15mph /  24.1km/h 44% 0in /  0.0mm
08:49 70.5 °F /  21.4 °C 47.7 °F /  8.7 °C 29.6in /  1002.9hPa SSO 8.7mph /  14km/h 15mph /  24.1km/h 44% 0in /  0.0mm
08:54 70.9 °F /  21.6 °C 47.8 °F /  8.8 °C 29.6in /  1003.1hPa SSO 8.7mph /  14km/h 15mph /  24.1km/h 44% 0in /  0.0mm
08:59 71.1 °F /  21.7 °C 48 °F /  8.9 °C 29.6in /  1003.1hPa SSO 8.7mph /  14km/h 17.3mph /  27.8km/h 44% 0in /  0.0mm
09:04 71.2 °F /  21.8 °C 48.4 °F /  9.1 °C 29.6in /  1003.1hPa SSO 8.5mph /  13.7km/h 17mph /  27.4km/h 44% 0in /  0.0mm
09:09 71.6 °F /  22 °C 48.4 °F /  9.1 °C 29.6in /  1003.1hPa SSO 8.5mph /  13.7km/h 16mph /  25.7km/h 44% 0in /  0.0mm
09:14 71.8 °F /  22.1 °C 48.7 °F /  9.3 °C 29.6in /  1003.1hPa SSO 8.6mph /  13.9km/h 15.9mph /  25.6km/h 44% 0in /  0.0mm
09:19 72 °F /  22.2 °C 48.9 °F /  9.4 °C 29.6in /  1003.1hPa SSO 8.7mph /  14km/h 16.1mph /  25.9km/h 44% 0in /  0.0mm
09:24 72.1 °F /  22.3 °C 49.1 °F /  9.5 °C 29.6in /  1003.1hPa SSO 8.7mph /  14km/h 17.5mph /  28.2km/h 44% 0in /  0.0mm
09:29 72.3 °F /  22.4 °C 49.3 °F /  9.6 °C 29.6in /  1003.1hPa SSO 8.7mph /  14km/h 17.3mph /  27.8km/h 44% 0in /  0.0mm
09:34 72.3 °F /  22.4 °C 49.3 °F /  9.6 °C 29.6in /  1003.1hPa SSO 9.5mph /  15.3km/h 17.3mph /  27.8km/h 44% 0in /  0.0mm
09:39 72.5 °F /  22.5 °C 49.5 °F /  9.7 °C 29.6in /  1003.1hPa SSO 9.7mph /  15.6km/h 19.2mph /  30.9km/h 44% 0in /  0.0mm
09:44 72.7 °F /  22.6 °C 49.5 °F /  9.7 °C 29.6in /  1003.0hPa SSO 10.1mph /  16.2km/h 20mph /  32.2km/h 44% 0in /  0.0mm
09:49 72.9 °F /  22.7 °C 49.6 °F /  9.8 °C 29.6in /  1003.0hPa SSO 10.2mph /  16.4km/h 17.3mph /  27.8km/h 44% 0in /  0.0mm
09:54 72.9 °F /  22.7 °C 49.6 °F /  9.8 °C 29.6in /  1003.1hPa SSO 10.1mph /  16.2km/h 17.3mph /  27.8km/h 43.9% 0in /  0.0mm
09:59 73 °F /  22.8 °C 49.5 °F /  9.7 °C 29.6in /  1003.1hPa SSO 10mph /  16.1km/h 17.3mph /  27.8km/h 43.4% 0in /  0.0mm
10:04 73.2 °F /  22.9 °C 49.5 °F /  9.7 °C 29.6in /  1003.1hPa SO 9.8mph /  15.7km/h 17mph /  27.4km/h 43.2% 0in /  0.0mm
10:09 73.2 °F /  22.9 °C 49.5 °F /  9.7 °C 29.6in /  1003.2hPa SSO 9.7mph /  15.6km/h 20.7mph /  33.3km/h 43% 0in /  0.0mm
10:14 73.2 °F /  22.9 °C 49.3 °F /  9.6 °C 29.6in /  1003.2hPa SSO 9.9mph /  16km/h 21mph /  33.8km/h 42.9% 0in /  0.0mm
10:19 73.2 °F /  22.9 °C 48.9 °F /  9.4 °C 29.6in /  1003.2hPa SSO 10mph /  16.1km/h 20.7mph /  33.3km/h 42.3% 0in /  0.0mm
10:24 73.6 °F /  23.1 °C 49.1 °F /  9.5 °C 29.6in /  1003.3hPa SSO 10.6mph /  17km/h 21mph /  33.8km/h 42.1% 0in /  0.0mm
10:29 73.8 °F /  23.2 °C 49.3 °F /  9.6 °C 29.6in /  1003.3hPa SSO 10.7mph /  17.2km/h 21mph /  33.8km/h 42% 0in /  0.0mm
10:34 73.9 °F /  23.3 °C 49.5 °F /  9.7 °C 29.6in /  1003.3hPa SSO 11.2mph /  18.1km/h 20mph /  32.2km/h 41.9% 0in /  0.0mm
10:39 74.1 °F /  23.4 °C 48.9 °F /  9.4 °C 29.6in /  1003.3hPa SSO 11.4mph /  18.4km/h 23mph /  37km/h 41.1% 0in /  0.0mm
10:44 74.1 °F /  23.4 °C 48.9 °F /  9.4 °C 29.6in /  1003.3hPa SSO 11.4mph /  18.4km/h 23mph /  37km/h 41.1% 0in /  0.0mm
10:49 74.3 °F /  23.5 °C 49.1 °F /  9.5 °C 29.6in /  1003.3hPa SSO 11.4mph /  18.4km/h 20mph /  32.2km/h 41.1% 0in /  0.0mm
10:54 74.7 °F /  23.7 °C 49.3 °F /  9.6 °C 29.6in /  1003.3hPa SSO 10.9mph /  17.5km/h 20mph /  32.2km/h 41% 0in /  0.0mm
10:59 74.8 °F /  23.8 °C 49.5 °F /  9.7 °C 29.6in /  1003.3hPa SSO 10.7mph /  17.2km/h 21.3mph /  34.3km/h 41% 0in /  0.0mm
11:04 75.2 °F /  24 °C 49.6 °F /  9.8 °C 29.6in /  1003.3hPa SSO 11.1mph /  17.9km/h 21mph /  33.8km/h 40.8% 0in /  0.0mm
11:09 75.4 °F /  24.1 °C 50 °F /  10 °C 29.6in /  1003.3hPa SSO 11.2mph /  18km/h 21mph /  33.8km/h 41% 0in /  0.0mm
11:14 75.6 °F /  24.2 °C 50 °F /  10 °C 29.6in /  1003.2hPa SSO 10mph /  16.1km/h 14mph /  22.5km/h 40.6% 0in /  0.0mm
11:19 75.4 °F /  24.1 °C 50 °F /  10 °C 29.6in /  1003.2hPa SSO 9.7mph /  15.6km/h 14mph /  22.5km/h 41% 0in /  0.0mm
11:24 75.4 °F /  24.1 °C 50 °F /  10 °C 29.6in /  1003.5hPa SSO 8.1mph /  13km/h 16.1mph /  25.9km/h 41% 0in /  0.0mm
11:29 75.6 °F /  24.2 °C 50.4 °F /  10.2 °C 29.6in /  1003.5hPa SO 7.6mph /  12.2km/h 16mph /  25.7km/h 41.1% 0in /  0.0mm
11:34 75.7 °F /  24.3 °C 50.4 °F /  10.2 °C 29.6in /  1003.5hPa OSO 7mph /  11.3km/h 12mph /  19.3km/h 41% 0in /  0.0mm
11:39 75.6 °F /  24.2 °C 50.4 °F /  10.2 °C 29.6in /  1003.8hPa OSO 6.9mph /  11.1km/h 12.7mph /  20.4km/h 41% 0in /  0.0mm
11:44 75.6 °F /  24.2 °C 50.2 °F /  10.1 °C 29.6in /  1003.8hPa SSO 6.5mph /  10.5km/h 13mph /  20.9km/h 41% 0in /  0.0mm
11:49 76.1 °F /  24.5 °C 50.7 °F /  10.4 °C 29.6in /  1003.8hPa SSO 6.4mph /  10.3km/h 13mph /  20.9km/h 41% 0in /  0.0mm
11:54 76.5 °F /  24.7 °C 50.5 °F /  10.3 °C 29.6in /  1003.8hPa SSO 6.3mph /  10.1km/h 12mph /  19.3km/h 40.4% 0in /  0.0mm
11:59 76.5 °F /  24.7 °C 50.4 °F /  10.2 °C 29.6in /  1003.6hPa Sur 6.2mph /  10km/h 11.2mph /  18km/h 40% 0in /  0.0mm
12:04 76.6 °F /  24.8 °C 50.5 °F /  10.3 °C 29.6in /  1003.6hPa Sur 5.5mph /  8.9km/h 12mph /  19.3km/h 40% 0in /  0.0mm
12:09 76.8 °F /  24.9 °C 50.5 °F /  10.3 °C 29.6in /  1003.6hPa SSE 5.4mph /  8.7km/h 9.2mph /  14.8km/h 39.8% 0in /  0.0mm
12:14 77 °F /  25 °C 50.5 °F /  10.3 °C 29.6in /  1003.4hPa SSE 4.8mph /  7.8km/h 9mph /  14.5km/h 39.6% 0in /  0.0mm
12:19 77 °F /  25 °C 50.7 °F /  10.4 °C 29.6in /  1003.4hPa Sur 4.7mph /  7.6km/h 8.1mph /  13km/h 39.8% 0in /  0.0mm
12:24 77.4 °F /  25.2 °C 50.5 °F /  10.3 °C 29.6in /  1003.5hPa OSO 4.7mph /  7.6km/h 9.2mph /  14.8km/h 39.3% 0in /  0.0mm
12:29 77.2 °F /  25.1 °C 50.4 °F /  10.2 °C 29.6in /  1003.5hPa Oeste 4.7mph /  7.6km/h 9mph /  14.5km/h 39% 0in /  0.0mm
12:34 77.4 °F /  25.2 °C 50.4 °F /  10.2 °C 29.6in /  1003.5hPa Oeste 4.4mph /  7.1km/h 8mph /  12.9km/h 39.1% 0in /  0.0mm
12:39 77.5 °F /  25.3 °C 50.5 °F /  10.3 °C 29.6in /  1003.5hPa Oeste 4.3mph /  6.9km/h 8.7mph /  14km/h 39% 0in /  0.0mm
12:44 77.5 °F /  25.3 °C 50.7 °F /  10.4 °C 29.6in /  1003.4hPa ONO 3.4mph /  5.4km/h 9.2mph /  14.8km/h 39% 0in /  0.0mm
12:49 77.7 °F /  25.4 °C 50.7 °F /  10.4 °C 29.6in /  1003.4hPa NO 3.1mph /  5km/h 9mph /  14.5km/h 38.9% 0in /  0.0mm
12:54 78.1 °F /  25.6 °C 50.7 °F /  10.4 °C 29.6in /  1003.5hPa ONO 4mph /  6.5km/h 9.2mph /  14.8km/h 38.5% 0in /  0.0mm
12:59 78.3 °F /  25.7 °C 50 °F /  10 °C 29.6in /  1003.5hPa SSO 4.3mph /  6.9km/h 16.1mph /  25.9km/h 37.4% 0in /  0.0mm
13:04 78.3 °F /  25.7 °C 50 °F /  10 °C 29.6in /  1003.5hPa SO 5.9mph /  9.5km/h 16mph /  25.7km/h 37.2% 0in /  0.0mm
13:09 78.4 °F /  25.8 °C 50.7 °F /  10.4 °C 29.6in /  1003.5hPa NNO 6.2mph /  10km/h 12mph /  19.3km/h 38% 0in /  0.0mm
13:14 78.8 °F /  26 °C 51.1 °F /  10.6 °C 29.6in /  1003.3hPa NO 5.4mph /  8.7km/h 10.2mph /  16.4km/h 38% 0in /  0.0mm
13:19 79 °F /  26.1 °C 50.7 °F /  10.4 °C 29.6in /  1003.3hPa NO 5.2mph /  8.4km/h 11.8mph /  19km/h 37.4% 0in /  0.0mm
13:24 79 °F /  26.1 °C 51.3 °F /  10.7 °C 29.6in /  1003.3hPa NO 5.3mph /  8.6km/h 12.7mph /  20.4km/h 38% 0in /  0.0mm
13:29 79.2 °F /  26.2 °C 51.1 °F /  10.6 °C 29.6in /  1003.1hPa ONO 5.4mph /  8.7km/h 15mph /  24.1km/h 37.8% 0in /  0.0mm
13:34 79.2 °F /  26.2 °C 50.5 °F /  10.3 °C 29.6in /  1003.1hPa ONO 7.5mph /  12.1km/h 18.5mph /  29.8km/h 37% 0in /  0.0mm
13:39 79.2 °F /  26.2 °C 50.7 °F /  10.4 °C 29.6in /  1003.1hPa Oeste 8.1mph /  13km/h 19mph /  30.6km/h 37.2% 0in /  0.0mm
13:44 79.2 °F /  26.2 °C 50.9 °F /  10.5 °C 29.6in /  1003.1hPa ONO 9.8mph /  15.7km/h 17mph /  27.4km/h 37.3% 0in /  0.0mm
13:49 79.2 °F /  26.2 °C 50.9 °F /  10.5 °C 29.6in /  1003.1hPa Oeste 10.2mph /  16.4km/h 23mph /  37km/h 37.5% 0in /  0.0mm
13:54 79.2 °F /  26.2 °C 51.1 °F /  10.6 °C 29.6in /  1003.3hPa ONO 10.6mph /  17km/h 23mph /  37km/h 37.7% 0in /  0.0mm
13:59 79.2 °F /  26.2 °C 51.4 °F /  10.8 °C 29.6in /  1003.3hPa ONO 10.7mph /  17.2km/h 21mph /  33.8km/h 38% 0in /  0.0mm
14:04 79 °F /  26.1 °C 51.1 °F /  10.6 °C 29.6in /  1003.3hPa ONO 11.2mph /  18.1km/h 23.5mph /  37.8km/h 37.7% 0in /  0.0mm
14:09 78.6 °F /  25.9 °C 50.9 °F /  10.5 °C 29.6in /  1003.3hPa ONO 11.4mph /  18.4km/h 23mph /  37km/h 38% 0in /  0.0mm
14:14 78.6 °F /  25.9 °C 50.9 °F /  10.5 °C 29.6in /  1003.3hPa ONO 13mph /  21km/h 19mph /  30.6km/h 38% 0in /  0.0mm
14:19 79 °F /  26.1 °C 50.7 °F /  10.4 °C 29.6in /  1003.3hPa Oeste 13.5mph /  21.7km/h 19mph /  30.6km/h 37.3% 0in /  0.0mm
14:24 79.2 °F /  26.2 °C 50.5 °F /  10.3 °C 29.6in /  1003.5hPa Oeste 10.6mph /  17km/h 17mph /  27.4km/h 37% 0in /  0.0mm
14:29 79.2 °F /  26.2 °C 50.5 °F /  10.3 °C 29.6in /  1003.5hPa Oeste 9.7mph /  15.6km/h 18.4mph /  29.6km/h 37% 0in /  0.0mm
14:34 79.2 °F /  26.2 °C 50.5 °F /  10.3 °C 29.6in /  1003.5hPa ONO 9.9mph /  16km/h 18.4mph /  29.6km/h 37% 0in /  0.0mm
14:39 78.8 °F /  26 °C 50.7 °F /  10.4 °C 29.6in /  1003.5hPa ONO 10mph /  16.1km/h 18.4mph /  29.6km/h 37.4% 0in /  0.0mm
14:44 78.8 °F /  26 °C 50.5 °F /  10.3 °C 29.6in /  1003.5hPa ONO 10.9mph /  17.6km/h 18mph /  29km/h 37.5% 0in /  0.0mm
14:49 78.8 °F /  26 °C 50.4 °F /  10.2 °C 29.6in /  1003.5hPa ONO 11.2mph /  18km/h 23mph /  37km/h 37% 0in /  0.0mm
14:54 78.4 °F /  25.8 °C 50 °F /  10 °C 29.6in /  1003.5hPa ONO 11.2mph /  18km/h 23mph /  37km/h 36.8% 0in /  0.0mm
14:59 78.3 °F /  25.7 °C 49.8 °F /  9.9 °C 29.6in /  1003.4hPa ONO 11.2mph /  18km/h 27.6mph /  44.4km/h 37% 0in /  0.0mm
15:04 78.4 °F /  25.8 °C 49.8 °F /  9.9 °C 29.6in /  1003.4hPa Oeste 13mph /  21km/h 28mph /  45.1km/h 37% 0in /  0.0mm
15:09 78.4 °F /  25.8 °C 50 °F /  10 °C 29.6in /  1003.5hPa ONO 13.5mph /  21.7km/h 26mph /  41.8km/h 37% 0in /  0.0mm
15:14 78.3 °F /  25.7 °C 50.2 °F /  10.1 °C 29.6in /  1003.5hPa Oeste 12.7mph /  20.5km/h 23mph /  37km/h 37.3% 0in /  0.0mm
15:19 78.4 °F /  25.8 °C 50.2 °F /  10.1 °C 29.6in /  1003.5hPa Oeste 12.5mph /  20.1km/h 24.2mph /  38.9km/h 37.3% 0in /  0.0mm
15:24 78.3 °F /  25.7 °C 50.4 °F /  10.2 °C 29.6in /  1003.8hPa ONO 12.5mph /  20.1km/h 24.2mph /  38.9km/h 37.6% 0in /  0.0mm
15:29 78.1 °F /  25.6 °C 50.4 °F /  10.2 °C 29.6in /  1003.8hPa ONO 12.5mph /  20.1km/h 25.3mph /  40.7km/h 38% 0in /  0.0mm
15:34 77.9 °F /  25.5 °C 50.2 °F /  10.1 °C 29.6in /  1003.8hPa ONO 13.4mph /  21.6km/h 25mph /  40.2km/h 38% 0in /  0.0mm
15:39 77.9 °F /  25.5 °C 50.4 °F /  10.2 °C 29.7in /  1004.0hPa ONO 13.7mph /  22.1km/h 21.3mph /  34.3km/h 38.3% 0in /  0.0mm
15:44 78.1 °F /  25.6 °C 50.4 °F /  10.2 °C 29.7in /  1004.0hPa ONO 12.2mph /  19.7km/h 21mph /  33.8km/h 38% 0in /  0.0mm
15:49 78.1 °F /  25.6 °C 50.4 °F /  10.2 °C 29.7in /  1004.0hPa ONO 11.8mph /  19km/h 22.3mph /  35.9km/h 38% 0in /  0.0mm
15:54 77.9 °F /  25.5 °C 50.2 °F /  10.1 °C 29.7in /  1004.2hPa ONO 13.3mph /  21.4km/h 26.3mph /  42.3km/h 38% 0in /  0.0mm
15:59 77.5 °F /  25.3 °C 50 °F /  10 °C 29.7in /  1004.2hPa Oeste 13.7mph /  22.1km/h 31.1mph /  50.1km/h 38.2% 0in /  0.0mm
16:04 77.4 °F /  25.2 °C 50.2 °F /  10.1 °C 29.7in /  1004.2hPa ONO 16.8mph /  27.1km/h 31mph /  49.9km/h 38.6% 0in /  0.0mm
16:09 77.2 °F /  25.1 °C 50.4 °F /  10.2 °C 29.7in /  1004.3hPa ONO 17.5mph /  28.2km/h 29mph /  46.7km/h 39% 0in /  0.0mm
16:14 77.2 °F /  25.1 °C 50.4 °F /  10.2 °C 29.7in /  1004.3hPa ONO 16.2mph /  26.1km/h 26.5mph /  42.6km/h 39% 0in /  0.0mm
16:19 77.2 °F /  25.1 °C 50.2 °F /  10.1 °C 29.7in /  1004.3hPa Oeste 15.9mph /  25.6km/h 26mph /  41.8km/h 38.7% 0in /  0.0mm
16:24 77.4 °F /  25.2 °C 49.8 °F /  9.9 °C 29.7in /  1004.6hPa Oeste 15mph /  24.1km/h 25.3mph /  40.7km/h 38.1% 0in /  0.0mm
16:29 77.4 °F /  25.2 °C 50.4 °F /  10.2 °C 29.7in /  1004.6hPa Oeste 14.7mph /  23.7km/h 25mph /  40.2km/h 38.8% 0in /  0.0mm
16:34 77.4 °F /  25.2 °C 49.8 °F /  9.9 °C 29.7in /  1004.6hPa Oeste 13mph /  20.9km/h 27.6mph /  44.4km/h 38% 0in /  0.0mm
16:39 77.2 °F /  25.1 °C 48.9 °F /  9.4 °C 29.7in /  1004.8hPa Oeste 12.5mph /  20.1km/h 31.1mph /  50.1km/h 37% 0in /  0.0mm
16:44 77 °F /  25 °C 48.7 °F /  9.3 °C 29.7in /  1004.8hPa Oeste 14.2mph /  22.9km/h 31mph /  49.9km/h 37% 0in /  0.0mm
16:49 76.8 °F /  24.9 °C 48.7 °F /  9.3 °C 29.7in /  1004.8hPa Oeste 14.7mph /  23.7km/h 23mph /  37km/h 37.2% 0in /  0.0mm
16:54 76.8 °F /  24.9 °C 48.7 °F /  9.3 °C 29.7in /  1005.2hPa Oeste 13mph /  20.9km/h 27.5mph /  44.3km/h 37.3% 0in /  0.0mm
16:59 76.6 °F /  24.8 °C 49.1 °F /  9.5 °C 29.7in /  1005.2hPa Oeste 12.5mph /  20.1km/h 28mph /  45.1km/h 37.9% 0in /  0.0mm
17:04 76.5 °F /  24.7 °C 49.1 °F /  9.5 °C 29.7in /  1005.2hPa Oeste 13.5mph /  21.7km/h 28mph /  45.1km/h 38% 0in /  0.0mm
17:09 76.5 °F /  24.7 °C 48.9 °F /  9.4 °C 29.7in /  1005.4hPa OSO 13.7mph /  22.1km/h 25mph /  40.2km/h 38% 0in /  0.0mm
17:14 76.5 °F /  24.7 °C 48.4 °F /  9.1 °C 29.7in /  1005.4hPa Oeste 11.9mph /  19.1km/h 25.3mph /  40.7km/h 37.4% 0in /  0.0mm
17:19 76.3 °F /  24.6 °C 48.7 °F /  9.3 °C 29.7in /  1005.4hPa Oeste 11.4mph /  18.4km/h 25mph /  40.2km/h 38% 0in /  0.0mm
17:24 75.9 °F /  24.4 °C 48.2 °F /  9 °C 29.7in /  1005.4hPa Oeste 12.2mph /  19.7km/h 30.1mph /  48.4km/h 37.4% 0in /  0.0mm
17:29 75.9 °F /  24.4 °C 48 °F /  8.9 °C 29.7in /  1005.2hPa Oeste 12.5mph /  20.1km/h 30mph /  48.3km/h 37.4% 0in /  0.0mm
17:34 75.7 °F /  24.3 °C 48.2 °F /  9 °C 29.7in /  1005.2hPa OSO 10.7mph /  17.2km/h 20mph /  32.2km/h 37.9% 0in /  0.0mm
17:39 75.7 °F /  24.3 °C 48.2 °F /  9 °C 29.7in /  1005.7hPa OSO 10.2mph /  16.4km/h 20.7mph /  33.3km/h 38% 0in /  0.0mm
17:44 75.6 °F /  24.2 °C 48.2 °F /  9 °C 29.7in /  1005.7hPa OSO 9.8mph /  15.8km/h 24.6mph /  39.6km/h 38% 0in /  0.0mm
17:49 75.4 °F /  24.1 °C 48 °F /  8.9 °C 29.7in /  1005.7hPa Oeste 9.7mph /  15.6km/h 25mph /  40.2km/h 38% 0in /  0.0mm
17:54 75.2 °F /  24 °C 48.2 °F /  9 °C 29.7in /  1006.0hPa OSO 9.7mph /  15.6km/h 17mph /  27.4km/h 38.4% 0in /  0.0mm
17:59 75 °F /  23.9 °C 48.4 °F /  9.1 °C 29.7in /  1006.0hPa OSO 9.7mph /  15.6km/h 16mph /  25.7km/h 39% 0in /  0.0mm
18:04 74.8 °F /  23.8 °C 48.2 °F /  9 °C 29.7in /  1006.0hPa Oeste 8.7mph /  14km/h 17.3mph /  27.8km/h 39% 0in /  0.0mm
18:09 74.7 °F /  23.7 °C 48.2 °F /  9 °C 29.7in /  1006.4hPa OSO 8.5mph /  13.7km/h 17mph /  27.4km/h 39% 0in /  0.0mm
18:14 74.7 °F /  23.7 °C 48.6 °F /  9.2 °C 29.7in /  1006.4hPa OSO 7.6mph /  12.3km/h 13mph /  20.9km/h 39.8% 0in /  0.0mm
18:19 74.5 °F /  23.6 °C 48.6 °F /  9.2 °C 29.7in /  1006.4hPa OSO 7.4mph /  11.9km/h 10mph /  16.1km/h 40% 0in /  0.0mm
18:24 74.5 °F /  23.6 °C 48.6 °F /  9.2 °C 29.7in /  1006.7hPa OSO 5.7mph /  9.1km/h 13.8mph /  22.2km/h 40% 0in /  0.0mm
18:29 74.1 °F /  23.4 °C 48.4 °F /  9.1 °C 29.7in /  1006.7hPa OSO 5.2mph /  8.4km/h 14mph /  22.5km/h 40.4% 0in /  0.0mm
18:34 73.9 °F /  23.3 °C 48.7 °F /  9.3 °C 29.7in /  1006.7hPa OSO 6mph /  9.6km/h 10.4mph /  16.7km/h 41% 0in /  0.0mm
18:39 73.9 °F /  23.3 °C 48.7 °F /  9.3 °C 29.7in /  1007.1hPa OSO 6.2mph /  10km/h 11.5mph /  18.5km/h 41% 0in /  0.0mm
18:44 73.8 °F /  23.2 °C 48.7 °F /  9.3 °C 29.7in /  1007.1hPa Oeste 6.2mph /  10km/h 12mph /  19.3km/h 41.4% 0in /  0.0mm
18:49 73.4 °F /  23 °C 48.9 °F /  9.4 °C 29.7in /  1007.1hPa Oeste 6.2mph /  10km/h 10.4mph /  16.7km/h 42% 0in /  0.0mm
18:54 73.2 °F /  22.9 °C 48.7 °F /  9.3 °C 29.7in /  1007.3hPa Oeste 6.8mph /  10.9km/h 14mph /  22.5km/h 42% 0in /  0.0mm
18:59 73.2 °F /  22.9 °C 48.9 °F /  9.4 °C 29.7in /  1007.3hPa Oeste 6.9mph /  11.1km/h 14mph /  22.5km/h 42.3% 0in /  0.0mm
19:04 73 °F /  22.8 °C 49.3 °F /  9.6 °C 29.7in /  1007.3hPa Oeste 8.2mph /  13.2km/h 14mph /  22.5km/h 43% 0in /  0.0mm
19:09 72.9 °F /  22.7 °C 49.1 °F /  9.5 °C 29.8in /  1007.5hPa Oeste 8.5mph /  13.7km/h 13mph /  20.9km/h 43% 0in /  0.0mm
19:14 72.9 °F /  22.7 °C 49.1 °F /  9.5 °C 29.8in /  1007.5hPa Oeste 7.6mph /  12.3km/h 13.8mph /  22.2km/h 43% 0in /  0.0mm
19:19 72.9 °F /  22.7 °C 49.1 °F /  9.5 °C 29.8in /  1007.5hPa Oeste 7.4mph /  11.9km/h 14mph /  22.5km/h 43% 0in /  0.0mm
19:24 72.9 °F /  22.7 °C 49.1 °F /  9.5 °C 29.8in /  1007.5hPa Oeste 8mph /  12.8km/h 16.1mph /  25.9km/h 43% 0in /  0.0mm
19:29 72.7 °F /  22.6 °C 48.9 °F /  9.4 °C 29.8in /  1007.5hPa Oeste 8.1mph /  13km/h 16mph /  25.7km/h 43% 0in /  0.0mm
19:34 72.7 °F /  22.6 °C 48.9 °F /  9.4 °C 29.8in /  1007.5hPa OSO 7.7mph /  12.4km/h 13mph /  20.9km/h 43% 0in /  0.0mm
19:39 72.5 °F /  22.5 °C 48.7 °F /  9.3 °C 29.8in /  1007.9hPa OSO 7.6mph /  12.2km/h 12mph /  19.3km/h 43% 0in /  0.0mm
19:44 72.3 °F /  22.4 °C 48.6 °F /  9.2 °C 29.8in /  1007.9hPa OSO 6.5mph /  10.5km/h 12mph /  19.3km/h 43% 0in /  0.0mm
19:49 72.3 °F /  22.4 °C 48.7 °F /  9.3 °C 29.8in /  1007.9hPa OSO 6.2mph /  10km/h 12mph /  19.3km/h 43.1% 0in /  0.0mm
19:54 72.3 °F /  22.4 °C 48.6 °F /  9.2 °C 29.8in /  1008.2hPa SO 5.4mph /  8.7km/h 10mph /  16.1km/h 43% 0in /  0.0mm
19:59 72.3 °F /  22.4 °C 48.6 °F /  9.2 °C 29.8in /  1008.2hPa SO 5.2mph /  8.4km/h 10mph /  16.1km/h 43% 0in /  0.0mm
20:04 72.3 °F /  22.4 °C 49.1 °F /  9.5 °C 29.8in /  1008.2hPa SSO 4.5mph /  7.2km/h 6mph /  9.7km/h 43.8% 0in /  0.0mm
20:09 72.1 °F /  22.3 °C 49.1 °F /  9.5 °C 29.8in /  1008.3hPa Sur 4.3mph /  6.9km/h 8.1mph /  13km/h 44% 0in /  0.0mm
20:14 72 °F /  22.2 °C 48.9 °F /  9.4 °C 29.8in /  1008.3hPa SSO 4.3mph /  6.9km/h 9.7mph /  15.6km/h 44% 0in /  0.0mm
20:19 72 °F /  22.2 °C 48.9 °F /  9.4 °C 29.8in /  1008.3hPa SSO 4.3mph /  6.9km/h 10mph /  16.1km/h 44% 0in /  0.0mm
20:24 72.1 °F /  22.3 °C 48.7 °F /  9.3 °C 29.8in /  1008.4hPa SO 5.2mph /  8.3km/h 9.2mph /  14.8km/h 43.5% 0in /  0.0mm
20:29 72.3 °F /  22.4 °C 48.6 °F /  9.2 °C 29.8in /  1008.4hPa SO 5.4mph /  8.7km/h 9mph /  14.5km/h 43% 0in /  0.0mm
20:34 72.3 °F /  22.4 °C 48.6 °F /  9.2 °C 29.8in /  1008.4hPa SO 4.8mph /  7.8km/h 9.2mph /  14.8km/h 43% 0in /  0.0mm
20:39 72.3 °F /  22.4 °C 48.6 °F /  9.2 °C 29.8in /  1008.6hPa OSO 4.7mph /  7.6km/h 9.2mph /  14.8km/h 43% 0in /  0.0mm
20:44 72.1 °F /  22.3 °C 48.6 °F /  9.2 °C 29.8in /  1008.6hPa OSO 5.1mph /  8.2km/h 9mph /  14.5km/h 43% 0in /  0.0mm
20:49 72 °F /  22.2 °C 48.7 °F /  9.3 °C 29.8in /  1008.6hPa OSO 5.2mph /  8.4km/h 6mph /  9.7km/h 43.7% 0in /  0.0mm
20:54 71.8 °F /  22.1 °C 48.7 °F /  9.3 °C 29.8in /  1008.8hPa SO 3.9mph /  6.3km/h 6.9mph /  11.1km/h 44% 0in /  0.0mm
20:59 71.6 °F /  22 °C 48.6 °F /  9.2 °C 29.8in /  1008.8hPa SO 3.6mph /  5.8km/h 7mph /  11.3km/h 44% 0in /  0.0mm
21:04 71.2 °F /  21.8 °C 48.7 °F /  9.3 °C 29.8in /  1008.8hPa OSO 3.6mph /  5.8km/h 7.4mph /  11.9km/h 44.9% 0in /  0.0mm
21:09 71.1 °F /  21.7 °C 48.7 °F /  9.3 °C 29.8in /  1009.1hPa SO 3.6mph /  5.8km/h 7mph /  11.3km/h 45% 0in /  0.0mm
21:14 71.1 °F /  21.7 °C 48.6 °F /  9.2 °C 29.8in /  1009.1hPa SSO 4.2mph /  6.7km/h 7.4mph /  11.9km/h 45% 0in /  0.0mm
21:19 70.9 °F /  21.6 °C 48.9 °F /  9.4 °C 29.8in /  1009.1hPa SSO 4.3mph /  6.9km/h 7mph /  11.3km/h 45.9% 0in /  0.0mm
21:24 70.5 °F /  21.4 °C 48.7 °F /  9.3 °C 29.8in /  1009.3hPa SO 4.3mph /  6.9km/h 7mph /  11.3km/h 46% 0in /  0.0mm
21:29 70.5 °F /  21.4 °C 48.7 °F /  9.3 °C 29.8in /  1009.3hPa SO 4.3mph /  6.9km/h 6.9mph /  11.1km/h 46% 0in /  0.0mm
21:34 70.3 °F /  21.3 °C 48.6 °F /  9.2 °C 29.8in /  1009.3hPa SO 4.3mph /  6.9km/h 7mph /  11.3km/h 46% 0in /  0.0mm
21:39 70.2 °F /  21.2 °C 48.4 °F /  9.1 °C 29.8in /  1009.6hPa SO 4.3mph /  6.9km/h 6.2mph /  10km/h 46% 0in /  0.0mm
21:44 70 °F /  21.1 °C 48.7 °F /  9.3 °C 29.8in /  1009.6hPa OSO 3.7mph /  6km/h 6mph /  9.7km/h 46.8% 0in /  0.0mm
21:49 69.6 °F /  20.9 °C 48.6 °F /  9.2 °C 29.8in /  1009.6hPa OSO 3.6mph /  5.8km/h 5.2mph /  8.4km/h 47% 0in /  0.0mm
21:54 69.4 °F /  20.8 °C 48.4 °F /  9.1 °C 29.8in /  1009.9hPa OSO 3mph /  4.9km/h 5mph /  8km/h 47% 0in /  0.0mm
21:59 69.4 °F /  20.8 °C 48.2 °F /  9 °C 29.8in /  1009.9hPa OSO 2.9mph /  4.7km/h 5.2mph /  8.4km/h 47% 0in /  0.0mm
22:04 69.3 °F /  20.7 °C 48.7 °F /  9.3 °C 29.8in /  1009.9hPa OSO 3mph /  4.9km/h 5mph /  8km/h 48% 0in /  0.0mm
22:09 69.1 °F /  20.6 °C 48.6 °F /  9.2 °C 29.8in /  1010.2hPa Oeste 3.1mph /  5km/h 5mph /  8km/h 48% 0in /  0.0mm
22:14 68.9 °F /  20.5 °C 48.6 °F /  9.2 °C 29.8in /  1010.2hPa ONO 2.9mph /  4.7km/h 17.3mph /  27.8km/h 48.4% 0in /  0.0mm
22:19 69.3 °F /  20.7 °C 48.7 °F /  9.3 °C 29.8in /  1010.2hPa ONO 2.9mph /  4.7km/h 17mph /  27.4km/h 48% 0in /  0.0mm
22:24 69.3 °F /  20.7 °C 48.7 °F /  9.3 °C 29.8in /  1010.2hPa ONO 6.6mph /  10.6km/h 15.9mph /  25.6km/h 48% 0in /  0.0mm
22:29 69.3 °F /  20.7 °C 48.7 °F /  9.3 °C 29.8in /  1010.2hPa ONO 7.6mph /  12.2km/h 17.5mph /  28.2km/h 48% 0in /  0.0mm
22:34 69.3 °F /  20.7 °C 48.7 °F /  9.3 °C 29.8in /  1010.2hPa ONO 8.3mph /  13.4km/h 17mph /  27.4km/h 48% 0in /  0.0mm
22:39 69.3 °F /  20.7 °C 48.7 °F /  9.3 °C 29.8in /  1010.2hPa ONO 8.5mph /  13.7km/h 15mph /  24.1km/h 48% 0in /  0.0mm
22:44 69.3 °F /  20.7 °C 48.7 °F /  9.3 °C 29.8in /  1010.1hPa Oeste 8.6mph /  13.9km/h 15mph /  24.1km/h 48% 0in /  0.0mm
22:49 69.3 °F /  20.7 °C 48.7 °F /  9.3 °C 29.8in /  1010.1hPa SSO 8.7mph /  14km/h 10mph /  16.1km/h 47.9% 0in /  0.0mm
22:54 68.9 °F /  20.5 °C 48.6 °F /  9.2 °C 29.8in /  1010.5hPa SE 6.2mph /  9.9km/h 9mph /  14.5km/h 48.1% 0in /  0.0mm
22:59 68.5 °F /  20.3 °C 48.6 °F /  9.2 °C 29.8in /  1010.5hPa SSE 5.4mph /  8.7km/h 6mph /  9.7km/h 49% 0in /  0.0mm
23:04 68.2 °F /  20.1 °C 48.7 °F /  9.3 °C 29.8in /  1010.5hPa SSE 3.5mph /  5.7km/h 6.9mph /  11.1km/h 49.8% 0in /  0.0mm
23:09 67.8 °F /  19.9 °C 48.7 °F /  9.3 °C 29.8in /  1010.6hPa SSE 3.1mph /  5km/h 7mph /  11.3km/h 50.2% 0in /  0.0mm
23:14 67.6 °F /  19.8 °C 48.9 °F /  9.4 °C 29.8in /  1010.6hPa SSE 3.1mph /  5km/h 5.8mph /  9.3km/h 51% 0in /  0.0mm
23:19 67.5 °F /  19.7 °C 48.9 °F /  9.4 °C 29.8in /  1010.6hPa SSE 3.1mph /  5km/h 6.9mph /  11.1km/h 51.4% 0in /  0.0mm
23:24 67.5 °F /  19.7 °C 48.7 °F /  9.3 °C 29.8in /  1010.6hPa SO 3.8mph /  6.1km/h 7mph /  11.3km/h 51% 0in /  0.0mm
23:29 67.5 °F /  19.7 °C 48.9 °F /  9.4 °C 29.8in /  1010.6hPa ONO 4mph /  6.5km/h 6mph /  9.7km/h 51.7% 0in /  0.0mm
23:34 67.1 °F /  19.5 °C 48.9 °F /  9.4 °C 29.8in /  1010.6hPa Oeste 3.1mph /  5km/h 6mph /  9.7km/h 52% 0in /  0.0mm
23:39 67.1 °F /  19.5 °C 48.7 °F /  9.3 °C 29.9in /  1010.9hPa SO 2.9mph /  4.7km/h 5mph /  8km/h 52% 0in /  0.0mm
23:44 66.9 °F /  19.4 °C 48.7 °F /  9.3 °C 29.9in /  1010.9hPa SO 1.7mph /  2.8km/h 4mph /  6.4km/h 51.8% 0in /  0.0mm
23:49 67.3 °F /  19.6 °C 48.4 °F /  9.1 °C 29.9in /  1010.9hPa OSO 1.4mph /  2.2km/h 6.2mph /  10km/h 51% 0in /  0.0mm
23:54 67.5 °F /  19.7 °C 48.7 °F /  9.3 °C 29.9in /  1010.9hPa SO 2.5mph /  4.1km/h 6.9mph /  11.1km/h 51% 0in /  0.0mm
23:59 67.5 °F /  19.7 °C 48.7 °F /  9.3 °C 29.9in /  1010.8hPa SO 2.9mph /  4.7km/h 7mph /  11.3km/h 51% 0in /  0.0mm
Murcia-Puente Tocinos, España
Compliments of Weather Underground - 3 mb

La estación de MeteoMurcia.com, publica sus datos en los siguientes proyectos:

Weather Underground PWS IMURCIAP2 Meteoclimatic www.awekas.at

W3Counter
Web Analytics